Time;durP1;ratioP1;P1;durP2;ratioP2;P2;SDS_P1;SDS_P2;PMS_P1;PMS_P2;Temp;Humidity;BMP_temperature;BMP_pressure;BME280_temperature;BME280_humidity;BME280_pressure;Samples;Min_cycle;Max_cycle;Signal;HPM_P1;HPM_P2
2021/03/10 00:00:40;;;;;;;4.80;4.30;;;22.50;46.80;;;;;;5033356;28;20167;-69
2021/03/10 00:03:06;;;;;;;6.13;5.07;;;22.50;46.80;;;;;;5033284;28;20253;-69
2021/03/10 00:05:32;;;;;;;5.30;4.80;;;22.50;46.80;;;;;;5033365;28;20246;-69
2021/03/10 00:07:58;;;;;;;6.43;3.90;;;22.50;46.80;;;;;;5033320;28;20270;-69
2021/03/10 00:10:23;;;;;;;5.47;4.10;;;22.50;46.80;;;;;;5033276;28;20168;-69
2021/03/10 00:12:49;;;;;;;5.97;4.80;;;22.50;46.80;;;;;;5033244;28;20178;-69
2021/03/10 00:15:14;;;;;;;5.07;4.57;;;22.50;46.80;;;;;;5033249;28;20192;-69
2021/03/10 00:17:42;;;;;;;4.87;4.37;;;22.50;46.90;;;;;;5033112;28;20202;-69
2021/03/10 00:20:10;;;;;;;4.00;3.60;;;22.50;46.90;;;;;;5033131;28;20183;-69
2021/03/10 00:22:36;;;;;;;5.57;4.70;;;22.50;46.90;;;;;;5033130;28;20403;-69
2021/03/10 00:25:03;;;;;;;5.03;3.50;;;22.50;46.80;;;;;;5033019;28;20450;-69
2021/03/10 00:27:29;;;;;;;4.90;4.10;;;22.50;46.90;;;;;;5033080;28;20229;-69
2021/03/10 00:30:00;;;;;;;4.63;3.53;;;22.50;46.90;;;;;;5031756;28;20808;-69
2021/03/10 00:32:27;;;;;;;5.10;4.20;;;22.40;46.80;;;;;;5033125;28;20205;-69
2021/03/10 00:34:54;;;;;;;4.87;3.80;;;22.50;46.90;;;;;;5033013;28;20410;-69
2021/03/10 00:37:21;;;;;;;4.93;4.00;;;22.40;46.80;;;;;;5032900;28;20434;-69
2021/03/10 00:39:48;;;;;;;5.60;4.20;;;22.40;46.80;;;;;;5032900;28;20429;-69
2021/03/10 00:42:14;;;;;;;4.97;4.27;;;22.40;46.80;;;;;;5033246;28;20406;-69
2021/03/10 00:44:40;;;;;;;4.63;3.90;;;22.40;46.80;;;;;;5032844;28;20893;-69
2021/03/10 00:47:07;;;;;;;5.23;4.50;;;22.40;46.80;;;;;;5033001;28;20485;-69
2021/03/10 00:49:34;;;;;;;4.83;4.20;;;22.40;46.90;;;;;;5032863;28;20426;-69
2021/03/10 00:51:59;;;;;;;5.90;4.13;;;22.40;46.90;;;;;;5032874;28;20457;-69
2021/03/10 00:54:25;;;;;;;7.00;4.73;;;22.40;46.80;;;;;;5034183;28;20775;-69
2021/03/10 00:56:51;;;;;;;4.73;3.93;;;22.40;46.90;;;;;;5036758;28;20246;-69
2021/03/10 00:59:16;;;;;;;5.27;4.80;;;22.40;46.80;;;;;;5036574;28;20191;-68
2021/03/10 01:01:42;;;;;;;4.57;3.73;;;22.40;46.90;;;;;;5036701;28;20176;-69
2021/03/10 01:04:08;;;;;;;4.00;3.50;;;22.40;46.90;;;;;;5036573;28;20219;-69
2021/03/10 01:06:33;;;;;;;4.57;3.70;;;22.40;46.90;;;;;;5036604;28;20167;-69
2021/03/10 01:08:59;;;;;;;4.63;4.03;;;22.40;46.90;;;;;;5037091;28;20317;-69
2021/03/10 01:11:25;;;;;;;4.20;3.67;;;22.40;46.90;;;;;;5036544;28;20639;-69
2021/03/10 01:13:50;;;;;;;5.33;3.93;;;22.40;46.90;;;;;;5036528;28;20179;-69
2021/03/10 01:16:16;;;;;;;4.93;4.43;;;22.40;46.90;;;;;;5036457;28;20245;-69
2021/03/10 01:18:42;;;;;;;5.40;3.80;;;22.40;46.90;;;;;;5036466;28;20195;-69
2021/03/10 01:21:08;;;;;;;4.63;3.80;;;22.40;46.90;;;;;;5036602;28;20409;-69
2021/03/10 01:23:33;;;;;;;5.40;4.10;;;22.40;46.90;;;;;;5036170;28;20230;-68
2021/03/10 01:26:00;;;;;;;5.10;4.60;;;22.40;46.90;;;;;;5036259;28;20174;-69
2021/03/10 01:28:25;;;;;;;4.80;3.80;;;22.40;46.90;;;;;;5036435;28;20187;-69
2021/03/10 01:30:51;;;;;;;5.40;4.23;;;22.40;46.90;;;;;;5036131;28;20959;-69
2021/03/10 01:33:17;;;;;;;4.30;3.73;;;22.40;46.90;;;;;;5036091;28;20633;-69
2021/03/10 01:35:43;;;;;;;4.60;3.93;;;22.40;46.90;;;;;;5036277;28;20237;-69
2021/03/10 01:38:09;;;;;;;4.70;3.83;;;22.40;46.90;;;;;;5034658;28;20949;-69
2021/03/10 01:40:34;;;;;;;4.53;4.03;;;22.40;46.90;;;;;;5035972;28;20589;-69
2021/03/10 01:43:04;;;;;;;5.33;4.40;;;22.40;46.90;;;;;;5035813;28;20167;-69
2021/03/10 01:45:30;;;;;;;4.87;4.00;;;22.40;46.90;;;;;;5035859;28;20164;-69
2021/03/10 01:47:58;;;;;;;4.37;3.80;;;22.40;46.90;;;;;;5035758;28;20465;-69
2021/03/10 01:50:26;;;;;;;4.50;3.57;;;22.40;46.90;;;;;;5035751;28;20434;-69
2021/03/10 01:52:54;;;;;;;5.43;4.10;;;22.40;46.90;;;;;;5036182;28;20402;-69
2021/03/10 01:55:21;;;;;;;4.47;3.73;;;22.40;46.90;;;;;;5035709;28;20402;-69
2021/03/10 01:57:47;;;;;;;6.57;3.80;;;22.40;46.90;;;;;;5035589;28;20493;-69
2021/03/10 02:00:13;;;;;;;4.27;3.80;;;22.40;46.90;;;;;;5035604;28;20557;-69
2021/03/10 02:02:39;;;;;;;5.47;3.87;;;22.40;46.90;;;;;;5035582;28;20242;-68
2021/03/10 02:05:07;;;;;;;4.23;3.47;;;22.40;46.90;;;;;;5035054;28;20493;-69
2021/03/10 02:07:48;;;;;;;4.77;3.83;;;22.40;46.90;;;;;;5034800;28;20928;-69
2021/03/10 02:10:25;;;;;;;3.80;3.40;;;22.40;46.90;;;;;;5034189;28;20448;-70
2021/03/10 02:13:19;;;;;;;4.07;3.70;;;22.40;46.90;;;;;;5034219;28;20618;-69
2021/03/10 02:15:55;;;;;;;3.80;3.10;;;22.40;46.90;;;;;;5035655;28;20397;-69
2021/03/10 02:18:36;;;;;;;4.77;3.53;;;22.40;46.90;;;;;;5035396;28;20548;-69
2021/03/10 02:21:15;;;;;;;3.70;3.30;;;22.30;46.80;;;;;;5035389;28;20387;-69
2021/03/10 02:24:11;;;;;;;5.93;3.63;;;22.30;46.80;;;;;;5035176;28;20434;-69
2021/03/10 02:27:15;;;;;;;4.50;3.30;;;22.30;46.90;;;;;;5035173;28;20415;-69
2021/03/10 02:29:43;;;;;;;3.70;2.90;;;22.30;46.90;;;;;;5035236;28;20418;-69
2021/03/10 02:32:11;;;;;;;5.53;4.10;;;22.30;47.00;;;;;;5035033;28;20798;-69
2021/03/10 02:34:38;;;;;;;3.80;3.40;;;22.30;46.90;;;;;;5034998;28;20418;-69
2021/03/10 02:37:06;;;;;;;3.93;3.60;;;22.30;46.90;;;;;;5035656;28;20441;-69
2021/03/10 02:39:32;;;;;;;5.67;3.10;;;22.30;46.90;;;;;;5034850;28;20461;-69
2021/03/10 02:41:58;;;;;;;3.93;3.43;;;22.30;46.90;;;;;;5034777;28;20490;-69
2021/03/10 02:44:25;;;;;;;4.13;3.37;;;22.30;46.90;;;;;;5035014;28;21014;-69
2021/03/10 02:46:51;;;;;;;4.87;3.90;;;22.30;46.90;;;;;;5034727;28;20172;-69
2021/03/10 02:49:18;;;;;;;3.53;2.83;;;22.30;46.90;;;;;;5034676;28;21052;-69
2021/03/10 02:51:45;;;;;;;5.30;4.30;;;22.30;46.90;;;;;;5034670;28;20164;-69
2021/03/10 02:54:14;;;;;;;4.80;3.70;;;22.30;46.90;;;;;;5034600;28;20450;-69
2021/03/10 02:56:42;;;;;;;4.20;3.30;;;22.30;46.90;;;;;;5034514;28;20978;-69
2021/03/10 02:59:08;;;;;;;3.73;3.37;;;22.30;46.90;;;;;;5034453;28;20433;-69
2021/03/10 03:01:34;;;;;;;3.60;3.17;;;22.30;46.90;;;;;;5034488;28;20903;-69
2021/03/10 03:03:59;;;;;;;3.87;3.47;;;22.30;46.80;;;;;;5034350;28;20533;-69
2021/03/10 03:06:25;;;;;;;4.90;3.70;;;22.30;46.80;;;;;;5034569;28;20195;-69
2021/03/10 03:08:51;;;;;;;4.17;3.53;;;22.30;46.80;;;;;;5034250;28;20187;-69
2021/03/10 03:11:16;;;;;;;4.53;3.87;;;22.30;46.80;;;;;;5034311;28;20638;-69
2021/03/10 03:13:42;;;;;;;4.07;3.40;;;22.30;46.80;;;;;;5033821;28;20172;-69
2021/03/10 03:16:08;;;;;;;4.07;3.20;;;22.30;46.80;;;;;;5034109;28;20183;-69
2021/03/10 03:18:35;;;;;;;3.70;2.90;;;22.30;46.80;;;;;;5033780;28;20195;-69
2021/03/10 03:21:01;;;;;;;3.00;2.70;;;22.30;46.80;;;;;;5032854;28;20461;-68
2021/03/10 03:23:27;;;;;;;4.00;3.43;;;22.30;46.80;;;;;;5033937;28;20485;-69
2021/03/10 03:25:53;;;;;;;3.53;3.23;;;22.30;46.80;;;;;;5034013;28;20927;-68
2021/03/10 03:28:21;;;;;;;3.53;3.13;;;22.30;46.80;;;;;;5033900;28;20418;-69
2021/03/10 03:30:49;;;;;;;4.47;3.40;;;22.30;46.80;;;;;;5033922;28;20322;-68
2021/03/10 03:33:18;;;;;;;3.80;3.10;;;22.30;46.80;;;;;;5033844;28;20419;-69
2021/03/10 03:35:50;;;;;;;4.00;3.53;;;22.30;46.80;;;;;;5033746;28;20423;-69
2021/03/10 03:38:16;;;;;;;3.70;3.30;;;22.30;46.90;;;;;;5033639;28;20525;-69
2021/03/10 03:40:42;;;;;;;4.87;3.20;;;22.40;46.90;;;;;;5034281;28;20410;-69
2021/03/10 03:43:10;;;;;;;4.07;3.20;;;22.30;46.80;;;;;;5033602;28;20425;-69
2021/03/10 03:45:36;;;;;;;3.50;3.17;;;22.30;46.80;;;;;;5032416;28;20422;-68
2021/03/10 03:48:03;;;;;;;3.10;2.60;;;22.30;46.80;;;;;;5033582;28;20430;-69
2021/03/10 03:50:29;;;;;;;2.97;2.67;;;22.30;46.80;;;;;;5032346;28;20414;-68
2021/03/10 03:52:55;;;;;;;3.40;3.07;;;22.30;46.80;;;;;;5033569;28;20410;-69
2021/03/10 03:55:21;;;;;;;3.80;3.40;;;22.30;46.80;;;;;;5033672;28;20406;-69
2021/03/10 03:57:47;;;;;;;3.60;2.80;;;22.30;46.80;;;;;;5032167;28;20183;-68
2021/03/10 04:00:17;;;;;;;3.93;2.73;;;22.20;46.70;;;;;;5032206;28;20414;-69
2021/03/10 04:02:43;;;;;;;3.97;3.17;;;22.30;46.80;;;;;;5033335;28;20207;-68
2021/03/10 04:05:09;;;;;;;3.13;2.83;;;22.20;46.70;;;;;;5033302;28;20450;-68
2021/03/10 04:07:52;;;;;;;4.37;3.60;;;22.20;46.70;;;;;;5033391;28;20891;-68
2021/03/10 04:10:21;;;;;;;3.80;3.10;;;22.20;46.70;;;;;;5033334;28;20414;-69
2021/03/10 04:12:47;;;;;;;3.13;2.83;;;22.20;46.70;;;;;;5033525;28;20406;-69
2021/03/10 04:15:14;;;;;;;3.83;2.93;;;22.20;46.70;;;;;;5033277;28;20411;-66
2021/03/10 04:17:39;;;;;;;3.67;3.00;;;22.20;46.70;;;;;;5015615;28;20179;-68
2021/03/10 04:20:11;;;;;;;3.07;2.77;;;22.20;46.70;;;;;;5033690;28;20493;-68
2021/03/10 04:22:36;;;;;;;3.33;3.00;;;22.20;46.70;;;;;;5031918;28;20172;-69
2021/03/10 04:25:03;;;;;;;3.30;3.00;;;22.20;46.70;;;;;;5033030;28;20454;-69
2021/03/10 04:27:29;;;;;;;3.40;2.80;;;22.20;46.70;;;;;;5033096;28;20179;-69
2021/03/10 04:29:54;;;;;;;5.30;3.50;;;22.20;46.70;;;;;;5032366;28;20426;-68
2021/03/10 04:32:20;;;;;;;3.80;3.00;;;22.20;46.60;;;;;;5033065;28;20187;-68
2021/03/10 04:34:45;;;;;;;3.50;2.40;;;22.20;46.60;;;;;;5033036;28;20214;-68
2021/03/10 04:37:11;;;;;;;3.33;3.00;;;22.20;46.70;;;;;;5032936;28;20655;-68
2021/03/10 04:39:36;;;;;;;3.73;3.33;;;22.20;46.60;;;;;;5032880;28;20203;-68
2021/03/10 04:42:02;;;;;;;4.20;2.80;;;22.20;46.60;;;;;;5031742;28;20278;-69
2021/03/10 04:44:28;;;;;;;3.30;3.00;;;22.20;46.60;;;;;;5032885;28;20214;-69
2021/03/10 04:46:53;;;;;;;4.00;3.30;;;22.20;46.60;;;;;;5033210;28;20546;-68
2021/03/10 04:49:19;;;;;;;2.90;2.70;;;22.20;46.60;;;;;;5031580;28;20577;-69
2021/03/10 04:51:45;;;;;;;3.83;2.70;;;22.20;46.60;;;;;;5033148;28;20176;-68
2021/03/10 04:54:10;;;;;;;3.53;3.10;;;22.20;46.60;;;;;;5032848;28;20187;-69
2021/03/10 04:56:36;;;;;;;3.13;2.83;;;22.20;46.80;;;;;;5032804;28;20180;-69
2021/03/10 04:59:01;;;;;;;3.50;2.70;;;22.20;46.60;;;;;;5032768;28;20198;-69
2021/03/10 05:01:27;;;;;;;3.33;3.03;;;22.20;46.60;;;;;;5031597;28;20188;-69
2021/03/10 05:03:52;;;;;;;3.40;3.10;;;22.10;46.50;;;;;;5032697;28;20296;-68
2021/03/10 05:06:18;;;;;;;2.60;2.40;;;22.20;46.60;;;;;;5032704;28;20589;-67
2021/03/10 05:08:44;;;;;;;3.27;2.90;;;22.20;46.60;;;;;;5032630;28;20196;-69
2021/03/10 05:11:09;;;;;;;2.80;2.40;;;22.10;46.50;;;;;;5032712;28;20218;-69
2021/03/10 05:13:35;;;;;;;2.77;2.53;;;22.10;46.60;;;;;;5032634;28;20538;-68
2021/03/10 05:16:00;;;;;;;3.97;3.20;;;22.10;46.60;;;;;;5032665;28;20204;-69
2021/03/10 05:18:26;;;;;;;3.30;2.47;;;22.10;46.60;;;;;;5032556;28;20279;-68
2021/03/10 05:20:52;;;;;;;2.90;2.60;;;22.10;46.60;;;;;;5032863;28;20179;-68
2021/03/10 05:23:17;;;;;;;2.23;2.00;;;22.10;46.60;;;;;;5032666;28;20208;-69
2021/03/10 05:25:43;;;;;;;3.37;2.70;;;22.10;46.60;;;;;;5032563;28;20176;-68
2021/03/10 05:28:08;;;;;;;3.10;2.40;;;22.10;46.60;;;;;;5032468;28;20234;-68
2021/03/10 05:30:34;;;;;;;4.80;2.90;;;22.10;46.60;;;;;;5032510;28;20174;-69
2021/03/10 05:32:59;;;;;;;3.50;2.80;;;22.10;46.60;;;;;;5032488;28;20654;-69
2021/03/10 05:35:25;;;;;;;2.50;2.30;;;22.10;46.60;;;;;;5032461;28;20214;-68
2021/03/10 05:37:50;;;;;;;3.40;2.40;;;22.10;46.60;;;;;;5032246;28;20596;-68
2021/03/10 05:40:18;;;;;;;2.43;2.20;;;22.10;46.60;;;;;;5032134;28;20587;-69
2021/03/10 05:42:44;;;;;;;2.83;2.40;;;22.10;46.60;;;;;;5036005;28;20170;-69
2021/03/10 05:45:13;;;;;;;2.50;2.30;;;22.10;46.60;;;;;;5036059;28;20450;-69
2021/03/10 05:47:39;;;;;;;3.37;2.23;;;22.10;46.60;;;;;;5035760;28;20410;-68
2021/03/10 05:50:06;;;;;;;4.10;2.73;;;22.10;46.60;;;;;;5035833;28;20424;-68
2021/03/10 05:52:35;;;;;;;2.90;2.40;;;22.10;46.50;;;;;;5035981;28;20195;-68
2021/03/10 05:55:01;;;;;;;3.00;2.37;;;22.10;46.50;;;;;;5036323;28;20913;-68
2021/03/10 05:57:27;;;;;;;3.57;2.83;;;22.10;46.50;;;;;;5036259;28;20509;-69
2021/03/10 05:59:52;;;;;;;2.57;2.30;;;22.10;46.50;;;;;;5035623;28;20941;-67
2021/03/10 06:02:18;;;;;;;3.00;2.40;;;22.10;46.50;;;;;;5035637;28;20194;-69
2021/03/10 06:04:44;;;;;;;2.23;2.00;;;22.20;46.60;;;;;;5035771;28;20651;-69
2021/03/10 06:07:23;;;;;;;2.43;2.23;;;22.20;46.60;;;;;;5035551;28;20489;-68
2021/03/10 06:10:05;;;;;;;2.83;2.37;;;22.20;46.50;;;;;;5035413;28;20568;-69
2021/03/10 06:12:44;;;;;;;3.80;2.60;;;22.20;46.60;;;;;;5035746;28;20760;-69
2021/03/10 06:15:11;;;;;;;4.03;2.97;;;22.20;46.60;;;;;;5035715;28;20398;-69
2021/03/10 06:17:46;;;;;;;3.70;2.60;;;22.20;46.60;;;;;;5035212;28;20445;-67
2021/03/10 06:20:26;;;;;;;2.73;2.53;;;22.20;46.60;;;;;;5035680;28;20782;-69
2021/03/10 06:22:53;;;;;;;3.13;2.50;;;22.20;46.60;;;;;;5034046;28;20784;-69
2021/03/10 06:25:19;;;;;;;3.00;2.20;;;22.20;46.60;;;;;;5035377;28;20523;-69
2021/03/10 06:27:52;;;;;;;3.10;2.40;;;22.20;46.60;;;;;;5034976;28;20480;-68
2021/03/10 06:30:35;;;;;;;2.43;2.20;;;22.20;46.60;;;;;;5035369;28;20407;-69
2021/03/10 06:33:01;;;;;;;2.53;2.20;;;22.20;46.60;;;;;;5035347;28;20486;-69
2021/03/10 06:35:29;;;;;;;2.73;2.53;;;22.20;46.60;;;;;;5035017;28;20406;-68
2021/03/10 06:38:15;;;;;;;2.40;2.10;;;22.20;46.60;;;;;;5034783;28;20922;-68
2021/03/10 06:40:51;;;;;;;4.13;2.60;;;22.30;46.60;;;;;;5034890;28;20411;-69
2021/03/10 06:43:18;;;;;;;2.83;2.27;;;22.20;46.60;;;;;;5034732;28;20417;-68
2021/03/10 06:45:44;;;;;;;2.83;2.27;;;22.20;46.60;;;;;;5035057;28;20407;-69
2021/03/10 06:48:21;;;;;;;2.50;2.30;;;22.20;46.60;;;;;;5034668;28;20426;-69
2021/03/10 06:50:47;;;;;;;3.77;2.60;;;22.20;46.60;;;;;;5034635;28;20414;-69
2021/03/10 06:53:13;;;;;;;2.37;1.90;;;22.20;46.60;;;;;;5034272;28;20902;-68
2021/03/10 06:55:40;;;;;;;2.73;2.17;;;22.20;46.60;;;;;;5034888;28;20406;-69
2021/03/10 06:58:06;;;;;;;3.43;2.50;;;22.20;46.60;;;;;;5034542;28;20192;-68
2021/03/10 07:00:32;;;;;;;3.07;2.33;;;22.20;46.60;;;;;;5034346;28;20480;-68
2021/03/10 07:03:00;;;;;;;3.20;2.43;;;22.30;46.70;;;;;;5034685;28;20441;-69
2021/03/10 07:05:27;;;;;;;3.50;2.30;;;22.30;46.70;;;;;;5034413;28;20474;-68
2021/03/10 07:07:54;;;;;;;2.90;2.60;;;22.30;46.70;;;;;;5034454;28;20442;-70
2021/03/10 07:10:23;;;;;;;2.90;2.37;;;22.30;46.70;;;;;;5034642;28;20525;-70
2021/03/10 07:12:49;;;;;;;2.53;1.93;;;22.30;46.70;;;;;;5034300;28;20486;-70
2021/03/10 07:15:16;;;;;;;3.20;2.73;;;22.30;46.70;;;;;;5034360;28;20406;-70
2021/03/10 07:17:44;;;;;;;3.80;2.60;;;22.30;46.70;;;;;;5036578;28;20398;-71
2021/03/10 07:20:10;;;;;;;3.57;2.50;;;22.30;46.70;;;;;;5035529;28;20403;-70
2021/03/10 07:22:41;;;;;;;3.33;2.60;;;22.40;46.70;;;;;;5033988;28;20417;-70
2021/03/10 07:25:13;;;;;;;4.70;2.70;;;22.30;46.60;;;;;;5032689;28;20277;-70
2021/03/10 07:27:45;;;;;;;3.47;2.50;;;22.40;46.70;;;;;;5032575;28;20418;-68
2021/03/10 07:30:11;;;;;;;3.20;2.60;;;22.40;46.60;;;;;;5034058;28;20410;-68
2021/03/10 07:32:37;;;;;;;3.40;2.53;;;22.40;46.60;;;;;;5034056;28;20414;-69
2021/03/10 07:35:08;;;;;;;3.33;2.10;;;22.50;46.70;;;;;;5034273;28;20410;-67
2021/03/10 07:37:35;;;;;;;2.67;2.37;;;22.50;46.70;;;;;;5033645;28;20219;-69
2021/03/10 07:40:11;;;;;;;2.40;2.10;;;22.50;46.60;;;;;;5033549;28;20456;-67
2021/03/10 07:42:49;;;;;;;3.47;2.23;;;22.50;46.60;;;;;;5033937;28;20961;-67
2021/03/10 07:45:15;;;;;;;2.77;2.10;;;22.60;46.70;;;;;;5033667;28;20565;-68
2021/03/10 07:47:51;;;;;;;2.63;2.20;;;22.50;46.60;;;;;;5033671;28;20501;-67
2021/03/10 07:50:18;;;;;;;4.60;2.80;;;22.50;46.60;;;;;;5033518;28;20187;-68
2021/03/10 07:52:54;;;;;;;2.83;2.20;;;22.60;46.80;;;;;;5033805;28;20505;-68
2021/03/10 07:55:21;;;;;;;2.77;2.10;;;22.60;46.70;;;;;;5033677;28;20398;-68
2021/03/10 07:57:54;;;;;;;2.23;2.00;;;22.60;46.70;;;;;;5033540;28;20489;-67
2021/03/10 08:00:41;;;;;;;3.90;2.23;;;22.70;46.80;;;;;;5032061;28;20423;-68
2021/03/10 08:03:07;;;;;;;2.17;1.97;;;22.70;46.80;;;;;;5032710;28;20419;-67
2021/03/10 08:05:34;;;;;;;2.10;1.70;;;22.70;46.80;;;;;;5032836;28;20406;-68
2021/03/10 08:08:06;;;;;;;3.00;2.00;;;22.70;46.80;;;;;;5033165;28;20422;-67
2021/03/10 08:10:32;;;;;;;3.10;2.03;;;22.70;46.70;;;;;;5033237;28;20402;-68
2021/03/10 08:12:57;;;;;;;3.47;1.90;;;22.70;46.70;;;;;;5033228;28;20836;-69
2021/03/10 08:15:24;;;;;;;2.70;2.00;;;22.70;46.70;;;;;;5033395;28;20442;-68
2021/03/10 08:18:00;;;;;;;2.30;2.07;;;22.70;46.70;;;;;;5033272;28;20179;-68
2021/03/10 08:20:30;;;;;;;2.00;1.80;;;22.70;46.70;;;;;;5033416;28;20403;-68
2021/03/10 08:22:56;;;;;;;2.87;2.17;;;22.80;46.80;;;;;;5031999;28;20414;-68
2021/03/10 08:25:23;;;;;;;2.40;2.00;;;22.80;46.80;;;;;;5032944;28;20508;-67
2021/03/10 08:27:48;;;;;;;2.77;2.07;;;22.80;46.80;;;;;;5031630;28;20493;-69
2021/03/10 08:30:14;;;;;;;2.23;1.77;;;22.80;46.80;;;;;;5032927;28;20573;-68
2021/03/10 08:32:41;;;;;;;2.60;2.10;;;22.80;46.80;;;;;;5033182;28;20250;-68
2021/03/10 08:35:20;;;;;;;3.23;2.27;;;22.80;46.80;;;;;;5033118;28;20497;-68
2021/03/10 08:37:58;;;;;;;2.80;2.40;;;22.80;46.70;;;;;;5032805;28;20872;-68
2021/03/10 08:40:26;;;;;;;2.23;1.93;;;22.80;46.80;;;;;;5032833;28;20414;-68
2021/03/10 08:42:59;;;;;;;2.40;2.10;;;22.80;46.80;;;;;;5033282;28;20418;-67
2021/03/10 08:45:29;;;;;;;3.73;1.80;;;22.80;46.80;;;;;;5031457;28;20478;-69
2021/03/10 08:48:04;;;;;;;2.40;1.70;;;22.80;46.80;;;;;;5032711;28;20441;-68
2021/03/10 08:50:36;;;;;;;2.40;2.00;;;22.80;46.80;;;;;;5032779;28;20796;-68
2021/03/10 08:53:03;;;;;;;3.13;2.20;;;22.80;46.80;;;;;;5033044;28;20815;-68
2021/03/10 08:55:28;;;;;;;3.20;1.90;;;22.80;46.80;;;;;;5031409;28;20418;-66
2021/03/10 08:57:55;;;;;;;2.47;1.80;;;22.90;46.90;;;;;;5032667;28;20417;-68
2021/03/10 09:00:28;;;;;;;2.70;1.57;;;22.90;46.90;;;;;;5032641;28;20163;-67
2021/03/10 09:02:54;;;;;;;1.83;1.60;;;22.90;46.90;;;;;;5032739;28;20520;-68
2021/03/10 09:05:28;;;;;;;2.10;1.70;;;22.90;46.90;;;;;;5032519;28;20442;-68
2021/03/10 09:07:55;;;;;;;3.17;2.63;;;22.90;46.90;;;;;;5033110;28;20418;-68
2021/03/10 09:10:24;;;;;;;3.10;1.83;;;22.90;46.90;;;;;;5032534;28;20797;-68
2021/03/10 09:12:53;;;;;;;3.23;2.30;;;22.90;46.90;;;;;;5032573;28;20405;-68
2021/03/10 09:15:25;;;;;;;2.83;2.03;;;22.90;46.90;;;;;;5033666;28;20463;-69
2021/03/10 09:17:51;;;;;;;3.00;2.10;;;22.90;46.90;;;;;;5036428;28;20417;-68
2021/03/10 09:20:19;;;;;;;2.50;2.10;;;22.90;46.90;;;;;;5036349;28;20410;-69
2021/03/10 09:22:46;;;;;;;3.80;2.30;;;22.90;46.90;;;;;;5035090;28;20553;-67
2021/03/10 09:25:21;;;;;;;2.70;1.97;;;22.90;46.80;;;;;;5036117;28;21030;-68
2021/03/10 09:27:47;;;;;;;2.23;1.63;;;22.90;46.80;;;;;;5036404;28;20717;-68
2021/03/10 09:30:21;;;;;;;2.20;1.67;;;22.90;46.90;;;;;;5036326;28;20808;-69
2021/03/10 09:32:47;;;;;;;2.60;1.70;;;23.00;46.90;;;;;;5036069;28;20947;-68
2021/03/10 09:35:17;;;;;;;2.40;1.57;;;23.00;46.90;;;;;;5018459;28;20937;-67
2021/03/10 09:37:52;;;;;;;2.60;2.00;;;23.00;46.90;;;;;;5035913;28;20484;-68
2021/03/10 09:40:21;;;;;;;3.37;2.03;;;23.00;46.90;;;;;;5036169;28;20437;-68
2021/03/10 09:42:57;;;;;;;3.47;1.87;;;23.00;46.90;;;;;;5036409;28;20560;-68
2021/03/10 09:45:26;;;;;;;2.40;1.83;;;23.00;46.90;;;;;;5034503;28;20453;-67
2021/03/10 09:47:52;;;;;;;3.50;2.00;;;23.00;46.80;;;;;;5034592;28;20398;-68
2021/03/10 09:50:30;;;;;;;2.23;1.70;;;23.00;46.80;;;;;;5036043;28;20489;-68
2021/03/10 09:52:56;;;;;;;3.40;2.00;;;23.00;46.80;;;;;;5034462;28;20481;-67
2021/03/10 09:55:24;;;;;;;3.73;2.03;;;23.00;46.80;;;;;;5035644;28;20410;-68
2021/03/10 09:58:01;;;;;;;3.30;2.17;;;23.00;46.80;;;;;;5035761;28;20494;-69
2021/03/10 10:00:27;;;;;;;3.53;2.27;;;23.00;46.90;;;;;;5035531;28;20909;-68
2021/03/10 10:02:53;;;;;;;2.33;2.13;;;23.00;46.90;;;;;;5034250;28;20441;-67
2021/03/10 10:05:30;;;;;;;2.53;1.90;;;22.90;46.90;;;;;;5035396;28;20191;-67
2021/03/10 10:07:57;;;;;;;4.10;2.37;;;22.90;46.90;;;;;;5035378;28;20213;-67
2021/03/10 10:10:26;;;;;;;3.70;2.43;;;22.90;46.90;;;;;;5035404;28;20746;-68
2021/03/10 10:12:54;;;;;;;3.97;2.67;;;22.90;46.90;;;;;;5035346;28;20436;-68
2021/03/10 10:15:22;;;;;;;3.63;2.33;;;22.90;46.90;;;;;;5035269;28;20417;-67
2021/03/10 10:17:50;;;;;;;4.00;2.20;;;22.90;46.90;;;;;;5035425;28;20423;-68
2021/03/10 10:20:19;;;;;;;5.80;2.80;;;22.90;47.00;;;;;;5035212;28;20518;-68
2021/03/10 10:22:45;;;;;;;7.10;2.40;;;22.90;47.00;;;;;;5033886;28;20971;-69
2021/03/10 10:25:13;;;;;;;4.87;2.60;;;22.90;47.00;;;;;;5035385;28;21022;-68
2021/03/10 10:27:42;;;;;;;4.20;2.47;;;22.80;46.90;;;;;;5034016;28;20460;-67
2021/03/10 10:30:08;;;;;;;4.90;2.50;;;22.80;46.90;;;;;;5033779;28;20411;-69
2021/03/10 10:32:34;;;;;;;6.87;3.50;;;22.90;47.10;;;;;;5034979;28;20410;-69
2021/03/10 10:35:00;;;;;;;6.33;3.50;;;22.80;47.00;;;;;;5035306;28;20414;-67
2021/03/10 10:37:25;;;;;;;6.37;2.90;;;22.80;47.00;;;;;;5035353;28;20191;-69
2021/03/10 10:39:51;;;;;;;3.80;2.10;;;22.80;47.00;;;;;;5033582;28;20203;-69
2021/03/10 10:42:17;;;;;;;6.53;2.90;;;22.80;47.00;;;;;;5034837;28;20178;-69
2021/03/10 10:44:43;;;;;;;3.73;2.80;;;22.80;47.00;;;;;;5034716;28;20318;-67
2021/03/10 10:47:09;;;;;;;5.57;2.70;;;22.80;47.00;;;;;;5033493;28;20882;-67
2021/03/10 10:49:35;;;;;;;5.13;2.53;;;22.80;46.90;;;;;;5034656;28;20192;-68
2021/03/10 10:52:00;;;;;;;4.20;2.40;;;22.80;47.00;;;;;;5033418;28;20414;-68
2021/03/10 10:54:26;;;;;;;4.10;2.53;;;22.80;46.90;;;;;;5034586;28;20172;-68
2021/03/10 10:56:52;;;;;;;4.80;2.40;;;22.80;47.00;;;;;;5034651;28;20672;-69
2021/03/10 10:59:17;;;;;;;5.37;2.67;;;22.80;46.90;;;;;;5034855;28;20198;-69
2021/03/10 11:01:44;;;;;;;4.63;2.80;;;22.80;47.00;;;;;;5034832;28;20172;-69
2021/03/10 11:04:10;;;;;;;4.50;2.77;;;22.80;47.00;;;;;;5034405;28;20457;-68
2021/03/10 11:06:36;;;;;;;8.33;2.93;;;22.80;47.00;;;;;;5033172;28;20890;-66
2021/03/10 11:09:02;;;;;;;5.33;2.50;;;22.80;47.00;;;;;;5032995;28;20434;-67
2021/03/10 11:11:27;;;;;;;5.50;2.20;;;22.80;47.00;;;;;;5034328;28;20172;-68
2021/03/10 11:13:53;;;;;;;4.73;2.57;;;22.80;47.00;;;;;;5034257;28;20544;-68
2021/03/10 11:16:18;;;;;;;5.50;2.43;;;22.80;47.00;;;;;;5034283;28;20175;-68
2021/03/10 11:18:44;;;;;;;4.33;2.97;;;22.80;47.00;;;;;;5034076;28;20297;-69
2021/03/10 11:21:10;;;;;;;5.33;2.60;;;22.80;47.10;;;;;;5034453;28;20246;-69
2021/03/10 11:23:35;;;;;;;4.40;2.63;;;22.70;47.00;;;;;;5034006;28;20693;-68
2021/03/10 11:26:01;;;;;;;7.23;3.50;;;22.80;47.10;;;;;;5034244;28;20171;-66
2021/03/10 11:28:27;;;;;;;4.10;2.23;;;22.80;47.10;;;;;;5034042;28;20188;-68
2021/03/10 11:30:53;;;;;;;5.60;3.43;;;22.80;47.10;;;;;;5016270;28;20407;-68
2021/03/10 11:33:19;;;;;;;4.03;2.23;;;22.80;47.10;;;;;;5033925;28;20441;-69
2021/03/10 11:35:44;;;;;;;6.50;3.40;;;22.80;47.10;;;;;;5033841;28;20255;-67
2021/03/10 11:38:10;;;;;;;4.00;2.67;;;22.70;47.00;;;;;;5033415;28;20555;-68
2021/03/10 11:40:37;;;;;;;5.10;2.37;;;22.80;47.10;;;;;;5033745;28;20172;-69
2021/03/10 11:43:03;;;;;;;2.60;2.30;;;22.80;47.10;;;;;;5033720;28;20168;-69
2021/03/10 11:45:29;;;;;;;3.87;2.20;;;22.80;47.10;;;;;;5033521;28;20822;-68
2021/03/10 11:47:55;;;;;;;5.00;3.10;;;22.80;47.10;;;;;;5033756;28;20403;-69
2021/03/10 11:50:21;;;;;;;5.07;3.80;;;22.80;47.00;;;;;;5033785;28;20932;-69
2021/03/10 11:52:46;;;;;;;8.63;4.50;;;22.70;47.00;;;;;;5033622;28;20250;-69
2021/03/10 11:55:13;;;;;;;7.20;5.10;;;22.70;46.90;;;;;;5033551;28;20175;-69
2021/03/10 11:57:39;;;;;;;10.90;6.60;;;22.70;46.80;;;;;;5033435;28;20643;-68
2021/03/10 12:00:06;;;;;;;8.50;4.80;;;22.70;46.70;;;;;;5032509;28;21008;-69
2021/03/10 12:02:31;;;;;;;7.40;5.60;;;22.70;46.70;;;;;;5033435;28;20560;-69
2021/03/10 12:04:57;;;;;;;5.93;4.30;;;22.70;46.70;;;;;;5032013;28;20549;-70
2021/03/10 12:07:23;;;;;;;5.20;3.73;;;22.70;46.80;;;;;;5033606;28;20176;-69
2021/03/10 12:09:49;;;;;;;3.77;3.37;;;22.70;47.30;;;;;;5033236;28;20190;-70
2021/03/10 12:12:15;;;;;;;4.27;3.20;;;22.70;46.70;;;;;;5033249;28;20402;-70
2021/03/10 12:14:40;;;;;;;6.07;3.43;;;22.70;46.70;;;;;;5033245;28;20627;-69
2021/03/10 12:17:06;;;;;;;4.10;3.17;;;22.70;46.80;;;;;;5033786;28;20180;-70
2021/03/10 12:19:32;;;;;;;3.87;2.90;;;22.70;46.80;;;;;;5033698;28;20191;-68
2021/03/10 12:21:59;;;;;;;3.43;2.80;;;22.70;46.80;;;;;;5033351;28;20168;-67
2021/03/10 12:24:24;;;;;;;4.03;2.80;;;22.70;46.70;;;;;;5032946;28;20200;-69
2021/03/10 12:26:50;;;;;;;5.10;2.90;;;22.70;46.70;;;;;;5033057;28;20913;-69
2021/03/10 12:29:16;;;;;;;4.53;2.70;;;22.70;46.70;;;;;;5032957;28;20191;-69
2021/03/10 12:31:41;;;;;;;4.07;2.60;;;22.70;46.80;;;;;;5033074;28;20163;-69
2021/03/10 12:34:07;;;;;;;9.27;3.10;;;22.70;46.80;;;;;;5033050;28;20639;-69
2021/03/10 12:36:32;;;;;;;3.97;2.87;;;22.60;46.70;;;;;;5032897;28;20184;-68
2021/03/10 12:38:58;;;;;;;3.90;2.67;;;22.60;46.80;;;;;;5032856;28;20206;-69
2021/03/10 12:41:24;;;;;;;3.97;2.90;;;22.60;46.80;;;;;;5032971;28;20200;-69
2021/03/10 12:43:50;;;;;;;3.20;2.63;;;22.60;46.80;;;;;;5032834;28;20187;-69
2021/03/10 12:46:16;;;;;;;6.60;2.97;;;22.60;46.80;;;;;;5032972;28;20721;-69
2021/03/10 12:48:41;;;;;;;5.37;2.63;;;22.60;46.80;;;;;;5031606;28;20482;-69
2021/03/10 12:51:07;;;;;;;4.13;3.73;;;22.60;46.80;;;;;;5035445;28;20537;-69